Aérodrome :
LOGIN :

S'inscrire | Disclaimer

   EN    FR    IT 

 










Légende :    VFR   VFR Marginal   IFR   IFR Intensif   IFR Très Intensif
Visi : 
Plafond : 
>= 8 km
>= 3000ft
5 à 8 km
1000 à 3000 ft
1500m à 5 km
500 à 1000 ft
800 à 1500m
200 à 500 ft
< 800m
< 200 ft
Symboles :   Orages  Brouillard  Fortes neiges  Fortes précipitations  Vent > 20 kt
SIGMETs :   Divers  Orages  Givrage  Turbulence  Onde Orograph.  Cendres Volcan.







- Altitude de l'aérodrome : 55 ft
- Code IATA : DSA
- Voir les cartes d'approche


EGCN - Robin Hood Doncaster Sheffield

DERNIER METAR :
  • 160450Z 29007KT CAVOK 01/M02 Q1015

METARs EXPIRÉS :
  • 160420Z 28006KT CAVOK 01/M02 Q1014
  • 160350Z 28008KT CAVOK 01/M01 Q1014
  • 160320Z AUTO 29008KT 9999 NCD 01/M02 Q1014
  • 160250Z AUTO 29008KT 9999 NCD 01/M02 Q1014
  • 160220Z AUTO 29009KT 9999 NCD 01/M02 Q1013

TAF TAF EGCN
Valide du 16 à 00h jusqu'au 17 à 00h UTC


152300Z 1600/1624 28008KT 9999 FEW035
PROB40 1621/1624 3000 BR
Pas de NOTAMs connus pour ce terrain.



MET'MAP, la Météo Aéronautique d'un coup d'oeil ! - Copyright ORBIFLY Décembre 2007 - Disclaimer

ORBIFLY MET'MAP TEAM :

Programmation & Développement : Alexandra Zaïnal
Conception & Développement : Baudouin d'Aumeries
Co-Programmation & Développement : Marc-Olivier Méhu
Soutien technique & logistique : Manuel Goepfert

Contact : metmap@orbifly.com




SOURCES & CREDITS :

   NOAA